sensor_id;sensor_type;location;lat;lon;timestamp;P1;durP1;ratioP1;P2;durP2;ratioP2
8574;SDS011;4325;42.520;27.448;2022-11-15T00:00:14;19.87;;;13.40;;
8574;SDS011;4325;42.520;27.448;2022-11-15T00:02:41;24.13;;;13.63;;
8574;SDS011;4325;42.520;27.448;2022-11-15T00:05:09;22.17;;;13.87;;
8574;SDS011;4325;42.520;27.448;2022-11-15T00:07:36;21.10;;;14.40;;
8574;SDS011;4325;42.520;27.448;2022-11-15T00:10:03;26.07;;;15.87;;
8574;SDS011;4325;42.520;27.448;2022-11-15T00:12:30;25.10;;;13.97;;
8574;SDS011;4325;42.520;27.448;2022-11-15T00:14:57;22.80;;;13.80;;
8574;SDS011;4325;42.520;27.448;2022-11-15T00:17:24;22.67;;;14.33;;
8574;SDS011;4325;42.520;27.448;2022-11-15T00:19:50;24.33;;;15.17;;
8574;SDS011;4325;42.520;27.448;2022-11-15T00:22:19;25.70;;;13.63;;
8574;SDS011;4325;42.520;27.448;2022-11-15T00:24:45;26.13;;;14.40;;
8574;SDS011;4325;42.520;27.448;2022-11-15T00:27:12;21.07;;;14.43;;
8574;SDS011;4325;42.520;27.448;2022-11-15T00:29:39;21.87;;;13.83;;
8574;SDS011;4325;42.520;27.448;2022-11-15T00:32:08;23.93;;;14.73;;
8574;SDS011;4325;42.520;27.448;2022-11-15T00:34:35;23.53;;;14.50;;
8574;SDS011;4325;42.520;27.448;2022-11-15T00:37:02;19.30;;;13.33;;
8574;SDS011;4325;42.520;27.448;2022-11-15T00:39:30;20.77;;;13.90;;
8574;SDS011;4325;42.520;27.448;2022-11-15T00:41:57;23.07;;;13.77;;
8574;SDS011;4325;42.520;27.448;2022-11-15T00:44:24;23.83;;;13.30;;
8574;SDS011;4325;42.520;27.448;2022-11-15T00:46:50;18.83;;;13.00;;
8574;SDS011;4325;42.520;27.448;2022-11-15T00:49:17;20.97;;;12.63;;
8574;SDS011;4325;42.520;27.448;2022-11-15T00:51:44;21.40;;;13.13;;
8574;SDS011;4325;42.520;27.448;2022-11-15T00:54:11;19.37;;;12.20;;
8574;SDS011;4325;42.520;27.448;2022-11-15T00:56:39;19.57;;;13.13;;
8574;SDS011;4325;42.520;27.448;2022-11-15T00:59:06;23.67;;;12.73;;
8574;SDS011;4325;42.520;27.448;2022-11-15T01:01:33;19.30;;;13.47;;
8574;SDS011;4325;42.520;27.448;2022-11-15T01:04:00;19.20;;;12.57;;
8574;SDS011;4325;42.520;27.448;2022-11-15T01:06:27;19.00;;;12.17;;
8574;SDS011;4325;42.520;27.448;2022-11-15T01:08:54;20.83;;;13.20;;
8574;SDS011;4325;42.520;27.448;2022-11-15T01:11:20;19.83;;;13.00;;
8574;SDS011;4325;42.520;27.448;2022-11-15T01:13:49;22.13;;;12.30;;
8574;SDS011;4325;42.520;27.448;2022-11-15T01:16:16;20.77;;;13.77;;
8574;SDS011;4325;42.520;27.448;2022-11-15T01:18:44;21.83;;;13.00;;
8574;SDS011;4325;42.520;27.448;2022-11-15T01:21:12;19.87;;;12.50;;
8574;SDS011;4325;42.520;27.448;2022-11-15T01:23:40;16.83;;;11.23;;
8574;SDS011;4325;42.520;27.448;2022-11-15T01:26:09;21.10;;;12.23;;
8574;SDS011;4325;42.520;27.448;2022-11-15T01:28:37;18.83;;;12.37;;
8574;SDS011;4325;42.520;27.448;2022-11-15T01:31:10;16.53;;;11.03;;
8574;SDS011;4325;42.520;27.448;2022-11-15T01:33:39;21.17;;;12.27;;
8574;SDS011;4325;42.520;27.448;2022-11-15T01:36:07;21.73;;;13.97;;
8574;SDS011;4325;42.520;27.448;2022-11-15T01:38:37;22.13;;;12.70;;
8574;SDS011;4325;42.520;27.448;2022-11-15T01:41:04;14.87;;;11.57;;
8574;SDS011;4325;42.520;27.448;2022-11-15T01:43:31;18.07;;;13.07;;
8574;SDS011;4325;42.520;27.448;2022-11-15T01:46:01;20.67;;;12.60;;
8574;SDS011;4325;42.520;27.448;2022-11-15T01:48:33;15.20;;;10.37;;
8574;SDS011;4325;42.520;27.448;2022-11-15T01:51:01;19.27;;;12.50;;
8574;SDS011;4325;42.520;27.448;2022-11-15T01:53:32;16.43;;;11.43;;
8574;SDS011;4325;42.520;27.448;2022-11-15T01:56:02;18.87;;;11.20;;
8574;SDS011;4325;42.520;27.448;2022-11-15T01:58:32;16.50;;;11.87;;
8574;SDS011;4325;42.520;27.448;2022-11-15T02:01:00;15.87;;;10.77;;
8574;SDS011;4325;42.520;27.448;2022-11-15T02:03:29;14.60;;;9.70;;
8574;SDS011;4325;42.520;27.448;2022-11-15T02:06:01;15.70;;;10.03;;
8574;SDS011;4325;42.520;27.448;2022-11-15T02:08:31;18.20;;;11.57;;
8574;SDS011;4325;42.520;27.448;2022-11-15T02:10:58;15.13;;;10.03;;
8574;SDS011;4325;42.520;27.448;2022-11-15T02:13:25;16.17;;;10.03;;
8574;SDS011;4325;42.520;27.448;2022-11-15T02:15:55;10.90;;;8.43;;
8574;SDS011;4325;42.520;27.448;2022-11-15T02:18:27;14.20;;;9.00;;
8574;SDS011;4325;42.520;27.448;2022-11-15T02:21:04;12.87;;;8.67;;
8574;SDS011;4325;42.520;27.448;2022-11-15T02:27:16;12.57;;;8.67;;
8574;SDS011;4325;42.520;27.448;2022-11-15T02:30:16;14.50;;;9.10;;
8574;SDS011;4325;42.520;27.448;2022-11-15T02:32:57;14.27;;;9.73;;
8574;SDS011;4325;42.520;27.448;2022-11-15T02:35:29;11.97;;;9.13;;
8574;SDS011;4325;42.520;27.448;2022-11-15T02:38:04;14.57;;;10.00;;
8574;SDS011;4325;42.520;27.448;2022-11-15T02:40:37;14.07;;;8.97;;
8574;SDS011;4325;42.520;27.448;2022-11-15T02:43:10;16.03;;;10.20;;
8574;SDS011;4325;42.520;27.448;2022-11-15T02:45:59;13.93;;;9.70;;
8574;SDS011;4325;42.520;27.448;2022-11-15T02:48:30;15.17;;;10.23;;
8574;SDS011;4325;42.520;27.448;2022-11-15T02:50:58;16.37;;;10.10;;
8574;SDS011;4325;42.520;27.448;2022-11-15T02:53:26;18.60;;;10.83;;
8574;SDS011;4325;42.520;27.448;2022-11-15T02:55:54;20.23;;;11.67;;
8574;SDS011;4325;42.520;27.448;2022-11-15T02:58:30;19.20;;;12.17;;
8574;SDS011;4325;42.520;27.448;2022-11-15T03:01:13;17.57;;;11.67;;
8574;SDS011;4325;42.520;27.448;2022-11-15T03:03:54;17.83;;;11.77;;
8574;SDS011;4325;42.520;27.448;2022-11-15T03:06:31;21.30;;;12.07;;
8574;SDS011;4325;42.520;27.448;2022-11-15T03:09:07;13.80;;;10.17;;
8574;SDS011;4325;42.520;27.448;2022-11-15T03:11:41;12.13;;;9.43;;
8574;SDS011;4325;42.520;27.448;2022-11-15T03:14:15;12.70;;;8.03;;
8574;SDS011;4325;42.520;27.448;2022-11-15T03:16:54;12.57;;;7.17;;
8574;SDS011;4325;42.520;27.448;2022-11-15T03:19:30;12.07;;;8.27;;
8574;SDS011;4325;42.520;27.448;2022-11-15T03:22:02;11.50;;;8.37;;
8574;SDS011;4325;42.520;27.448;2022-11-15T03:24:34;11.40;;;8.37;;
8574;SDS011;4325;42.520;27.448;2022-11-15T03:27:04;12.00;;;7.83;;
8574;SDS011;4325;42.520;27.448;2022-11-15T03:29:33;11.63;;;7.67;;
8574;SDS011;4325;42.520;27.448;2022-11-15T03:32:07;12.47;;;8.23;;
8574;SDS011;4325;42.520;27.448;2022-11-15T03:34:39;13.10;;;8.17;;
8574;SDS011;4325;42.520;27.448;2022-11-15T03:37:10;12.30;;;7.97;;
8574;SDS011;4325;42.520;27.448;2022-11-15T03:42:27;13.53;;;7.90;;
8574;SDS011;4325;42.520;27.448;2022-11-15T03:45:00;10.47;;;7.53;;
8574;SDS011;4325;42.520;27.448;2022-11-15T03:47:36;15.27;;;8.67;;
8574;SDS011;4325;42.520;27.448;2022-11-15T03:50:07;11.13;;;7.83;;
8574;SDS011;4325;42.520;27.448;2022-11-15T03:52:37;10.00;;;8.00;;
8574;SDS011;4325;42.520;27.448;2022-11-15T03:55:06;9.87;;;7.70;;
8574;SDS011;4325;42.520;27.448;2022-11-15T03:57:35;13.80;;;8.33;;
8574;SDS011;4325;42.520;27.448;2022-11-15T04:00:02;11.97;;;7.80;;
8574;SDS011;4325;42.520;27.448;2022-11-15T04:02:30;14.37;;;8.60;;
8574;SDS011;4325;42.520;27.448;2022-11-15T04:04:58;10.07;;;7.37;;
8574;SDS011;4325;42.520;27.448;2022-11-15T04:07:25;11.27;;;7.80;;
8574;SDS011;4325;42.520;27.448;2022-11-15T04:09:52;10.50;;;7.27;;
8574;SDS011;4325;42.520;27.448;2022-11-15T04:12:31;10.07;;;7.40;;
8574;SDS011;4325;42.520;27.448;2022-11-15T04:15:00;10.77;;;7.70;;
8574;SDS011;4325;42.520;27.448;2022-11-15T04:17:35;10.37;;;7.93;;
8574;SDS011;4325;42.520;27.448;2022-11-15T04:20:06;10.80;;;7.23;;
8574;SDS011;4325;42.520;27.448;2022-11-15T04:22:52;14.67;;;9.57;;
8574;SDS011;4325;42.520;27.448;2022-11-15T04:25:37;12.63;;;8.33;;
8574;SDS011;4325;42.520;27.448;2022-11-15T04:28:05;12.13;;;8.10;;
8574;SDS011;4325;42.520;27.448;2022-11-15T04:30:32;10.03;;;7.90;;
8574;SDS011;4325;42.520;27.448;2022-11-15T04:32:58;11.53;;;8.50;;
8574;SDS011;4325;42.520;27.448;2022-11-15T04:35:27;10.23;;;7.60;;
8574;SDS011;4325;42.520;27.448;2022-11-15T04:37:54;11.90;;;8.07;;
8574;SDS011;4325;42.520;27.448;2022-11-15T04:40:19;12.00;;;8.30;;
8574;SDS011;4325;42.520;27.448;2022-11-15T04:42:46;10.23;;;7.80;;
8574;SDS011;4325;42.520;27.448;2022-11-15T04:45:13;10.27;;;7.10;;
8574;SDS011;4325;42.520;27.448;2022-11-15T04:47:42;10.33;;;7.50;;
8574;SDS011;4325;42.520;27.448;2022-11-15T04:50:10;10.70;;;7.60;;
8574;SDS011;4325;42.520;27.448;2022-11-15T04:52:39;9.87;;;7.57;;
8574;SDS011;4325;42.520;27.448;2022-11-15T04:55:07;11.13;;;7.67;;
8574;SDS011;4325;42.520;27.448;2022-11-15T04:57:34;9.37;;;7.33;;
8574;SDS011;4325;42.520;27.448;2022-11-15T05:00:02;9.90;;;7.37;;
8574;SDS011;4325;42.520;27.448;2022-11-15T05:02:30;10.40;;;7.57;;
8574;SDS011;4325;42.520;27.448;2022-11-15T05:05:11;11.47;;;8.20;;
8574;SDS011;4325;42.520;27.448;2022-11-15T05:07:37;10.43;;;7.10;;
8574;SDS011;4325;42.520;27.448;2022-11-15T05:10:06;12.37;;;7.83;;
8574;SDS011;4325;42.520;27.448;2022-11-15T05:12:33;11.47;;;7.40;;
8574;SDS011;4325;42.520;27.448;2022-11-15T05:15:00;11.80;;;7.57;;
8574;SDS011;4325;42.520;27.448;2022-11-15T05:17:27;12.43;;;8.27;;
8574;SDS011;4325;42.520;27.448;2022-11-15T05:19:53;13.77;;;9.07;;
8574;SDS011;4325;42.520;27.448;2022-11-15T05:22:20;10.83;;;7.80;;
8574;SDS011;4325;42.520;27.448;2022-11-15T05:24:49;13.67;;;9.23;;
8574;SDS011;4325;42.520;27.448;2022-11-15T05:27:15;16.90;;;10.30;;
8574;SDS011;4325;42.520;27.448;2022-11-15T05:29:42;20.73;;;12.40;;
8574;SDS011;4325;42.520;27.448;2022-11-15T05:32:09;17.00;;;9.97;;
8574;SDS011;4325;42.520;27.448;2022-11-15T05:34:38;15.27;;;9.70;;
8574;SDS011;4325;42.520;27.448;2022-11-15T05:37:05;14.80;;;10.47;;
8574;SDS011;4325;42.520;27.448;2022-11-15T05:39:32;13.97;;;10.00;;
8574;SDS011;4325;42.520;27.448;2022-11-15T05:42:01;15.10;;;9.47;;
8574;SDS011;4325;42.520;27.448;2022-11-15T05:44:33;14.77;;;9.90;;
8574;SDS011;4325;42.520;27.448;2022-11-15T05:47:02;15.80;;;10.27;;
8574;SDS011;4325;42.520;27.448;2022-11-15T05:49:33;13.03;;;9.37;;
8574;SDS011;4325;42.520;27.448;2022-11-15T05:52:02;20.50;;;9.07;;
8574;SDS011;4325;42.520;27.448;2022-11-15T05:54:31;12.10;;;9.33;;
8574;SDS011;4325;42.520;27.448;2022-11-15T05:56:58;14.87;;;9.07;;
8574;SDS011;4325;42.520;27.448;2022-11-15T05:59:28;14.87;;;10.03;;
8574;SDS011;4325;42.520;27.448;2022-11-15T06:01:56;15.03;;;9.83;;
8574;SDS011;4325;42.520;27.448;2022-11-15T06:04:23;14.07;;;10.17;;
8574;SDS011;4325;42.520;27.448;2022-11-15T06:06:49;14.87;;;9.73;;
8574;SDS011;4325;42.520;27.448;2022-11-15T06:09:16;13.53;;;10.43;;
8574;SDS011;4325;42.520;27.448;2022-11-15T06:11:43;15.67;;;9.73;;
8574;SDS011;4325;42.520;27.448;2022-11-15T06:14:11;16.03;;;10.00;;
8574;SDS011;4325;42.520;27.448;2022-11-15T06:16:38;15.43;;;10.30;;
8574;SDS011;4325;42.520;27.448;2022-11-15T06:19:05;23.27;;;11.53;;
8574;SDS011;4325;42.520;27.448;2022-11-15T06:21:32;21.30;;;10.33;;
8574;SDS011;4325;42.520;27.448;2022-11-15T06:23:59;13.27;;;9.13;;
8574;SDS011;4325;42.520;27.448;2022-11-15T06:26:26;16.70;;;10.40;;
8574;SDS011;4325;42.520;27.448;2022-11-15T06:28:53;13.30;;;9.67;;
8574;SDS011;4325;42.520;27.448;2022-11-15T06:31:21;14.00;;;10.00;;
8574;SDS011;4325;42.520;27.448;2022-11-15T06:33:48;15.17;;;10.20;;
8574;SDS011;4325;42.520;27.448;2022-11-15T06:36:15;14.27;;;9.67;;
8574;SDS011;4325;42.520;27.448;2022-11-15T06:38:43;13.87;;;9.67;;
8574;SDS011;4325;42.520;27.448;2022-11-15T06:41:11;14.93;;;9.70;;
8574;SDS011;4325;42.520;27.448;2022-11-15T06:43:39;12.60;;;9.57;;
8574;SDS011;4325;42.520;27.448;2022-11-15T06:46:06;17.20;;;8.80;;
8574;SDS011;4325;42.520;27.448;2022-11-15T06:48:35;15.43;;;9.17;;
8574;SDS011;4325;42.520;27.448;2022-11-15T06:51:02;13.17;;;9.77;;
8574;SDS011;4325;42.520;27.448;2022-11-15T06:53:30;11.50;;;9.07;;
8574;SDS011;4325;42.520;27.448;2022-11-15T06:55:58;12.60;;;9.00;;
8574;SDS011;4325;42.520;27.448;2022-11-15T06:58:26;15.20;;;10.33;;
8574;SDS011;4325;42.520;27.448;2022-11-15T07:00:53;18.93;;;10.43;;
8574;SDS011;4325;42.520;27.448;2022-11-15T07:03:20;14.00;;;10.20;;
8574;SDS011;4325;42.520;27.448;2022-11-15T07:05:52;13.43;;;9.90;;
8574;SDS011;4325;42.520;27.448;2022-11-15T07:08:20;20.73;;;10.60;;
8574;SDS011;4325;42.520;27.448;2022-11-15T07:10:47;15.47;;;10.80;;
8574;SDS011;4325;42.520;27.448;2022-11-15T07:13:14;13.00;;;9.67;;
8574;SDS011;4325;42.520;27.448;2022-11-15T07:15:41;11.33;;;8.23;;
8574;SDS011;4325;42.520;27.448;2022-11-15T07:18:08;10.47;;;7.33;;
8574;SDS011;4325;42.520;27.448;2022-11-15T07:20:35;12.23;;;8.50;;
8574;SDS011;4325;42.520;27.448;2022-11-15T07:23:04;12.37;;;8.80;;
8574;SDS011;4325;42.520;27.448;2022-11-15T07:25:31;11.57;;;7.93;;
8574;SDS011;4325;42.520;27.448;2022-11-15T07:27:58;12.83;;;8.87;;
8574;SDS011;4325;42.520;27.448;2022-11-15T07:30:26;14.00;;;9.00;;
8574;SDS011;4325;42.520;27.448;2022-11-15T07:32:53;10.80;;;8.27;;
8574;SDS011;4325;42.520;27.448;2022-11-15T07:35:20;10.37;;;8.53;;
8574;SDS011;4325;42.520;27.448;2022-11-15T07:37:54;9.97;;;7.90;;
8574;SDS011;4325;42.520;27.448;2022-11-15T07:40:23;13.23;;;8.23;;
8574;SDS011;4325;42.520;27.448;2022-11-15T07:42:50;9.13;;;7.30;;
8574;SDS011;4325;42.520;27.448;2022-11-15T07:45:21;12.67;;;7.70;;
8574;SDS011;4325;42.520;27.448;2022-11-15T07:47:48;9.77;;;7.50;;
8574;SDS011;4325;42.520;27.448;2022-11-15T07:50:16;10.93;;;7.90;;
8574;SDS011;4325;42.520;27.448;2022-11-15T07:52:43;9.97;;;8.00;;
8574;SDS011;4325;42.520;27.448;2022-11-15T07:55:09;8.57;;;7.17;;
8574;SDS011;4325;42.520;27.448;2022-11-15T07:57:38;10.93;;;7.80;;
8574;SDS011;4325;42.520;27.448;2022-11-15T08:00:05;9.47;;;7.60;;
8574;SDS011;4325;42.520;27.448;2022-11-15T08:02:33;12.50;;;8.00;;
8574;SDS011;4325;42.520;27.448;2022-11-15T08:05:00;9.73;;;7.67;;
8574;SDS011;4325;42.520;27.448;2022-11-15T08:07:28;9.73;;;7.70;;
8574;SDS011;4325;42.520;27.448;2022-11-15T08:09:56;9.23;;;7.43;;
8574;SDS011;4325;42.520;27.448;2022-11-15T08:12:23;11.10;;;8.17;;
8574;SDS011;4325;42.520;27.448;2022-11-15T08:14:51;9.47;;;7.10;;
8574;SDS011;4325;42.520;27.448;2022-11-15T08:17:18;9.27;;;7.50;;
8574;SDS011;4325;42.520;27.448;2022-11-15T08:19:45;9.27;;;7.27;;
8574;SDS011;4325;42.520;27.448;2022-11-15T08:22:12;10.70;;;6.50;;
8574;SDS011;4325;42.520;27.448;2022-11-15T08:24:40;10.83;;;6.47;;
8574;SDS011;4325;42.520;27.448;2022-11-15T08:27:07;16.03;;;7.27;;
8574;SDS011;4325;42.520;27.448;2022-11-15T08:29:40;11.63;;;7.37;;
8574;SDS011;4325;42.520;27.448;2022-11-15T08:32:09;9.83;;;6.67;;
8574;SDS011;4325;42.520;27.448;2022-11-15T08:34:36;13.27;;;8.10;;
8574;SDS011;4325;42.520;27.448;2022-11-15T08:37:03;17.67;;;7.60;;
8574;SDS011;4325;42.520;27.448;2022-11-15T08:39:30;11.60;;;8.17;;
8574;SDS011;4325;42.520;27.448;2022-11-15T08:41:57;10.03;;;7.13;;
8574;SDS011;4325;42.520;27.448;2022-11-15T08:44:24;8.17;;;7.23;;
8574;SDS011;4325;42.520;27.448;2022-11-15T08:46:51;8.13;;;6.47;;
8574;SDS011;4325;42.520;27.448;2022-11-15T08:49:19;9.37;;;7.27;;
8574;SDS011;4325;42.520;27.448;2022-11-15T08:51:46;9.73;;;7.40;;
8574;SDS011;4325;42.520;27.448;2022-11-15T08:54:13;10.30;;;8.10;;
8574;SDS011;4325;42.520;27.448;2022-11-15T08:56:40;11.17;;;8.00;;
8574;SDS011;4325;42.520;27.448;2022-11-15T08:59:07;12.00;;;8.47;;
8574;SDS011;4325;42.520;27.448;2022-11-15T09:01:33;13.33;;;9.37;;
8574;SDS011;4325;42.520;27.448;2022-11-15T09:04:00;8.57;;;7.53;;
8574;SDS011;4325;42.520;27.448;2022-11-15T09:06:30;9.67;;;7.57;;
8574;SDS011;4325;42.520;27.448;2022-11-15T09:08:57;12.50;;;8.83;;
8574;SDS011;4325;42.520;27.448;2022-11-15T09:11:24;13.87;;;10.80;;
8574;SDS011;4325;42.520;27.448;2022-11-15T09:13:51;14.20;;;9.73;;
8574;SDS011;4325;42.520;27.448;2022-11-15T09:16:18;10.93;;;9.70;;
8574;SDS011;4325;42.520;27.448;2022-11-15T09:18:45;10.67;;;9.50;;
8574;SDS011;4325;42.520;27.448;2022-11-15T09:21:12;12.50;;;10.77;;
8574;SDS011;4325;42.520;27.448;2022-11-15T09:23:40;10.23;;;9.03;;
8574;SDS011;4325;42.520;27.448;2022-11-15T09:26:07;12.33;;;8.83;;
8574;SDS011;4325;42.520;27.448;2022-11-15T09:28:34;9.13;;;8.30;;
8574;SDS011;4325;42.520;27.448;2022-11-15T09:31:03;11.20;;;9.53;;
8574;SDS011;4325;42.520;27.448;2022-11-15T09:33:31;14.37;;;10.43;;
8574;SDS011;4325;42.520;27.448;2022-11-15T09:36:01;10.97;;;9.30;;
8574;SDS011;4325;42.520;27.448;2022-11-15T09:38:30;13.67;;;10.63;;
8574;SDS011;4325;42.520;27.448;2022-11-15T09:43:54;12.77;;;9.33;;
8574;SDS011;4325;42.520;27.448;2022-11-15T09:46:32;11.03;;;9.93;;
8574;SDS011;4325;42.520;27.448;2022-11-15T09:49:07;10.80;;;9.67;;
8574;SDS011;4325;42.520;27.448;2022-11-15T09:51:36;11.73;;;10.00;;
8574;SDS011;4325;42.520;27.448;2022-11-15T09:54:12;15.17;;;10.40;;
8574;SDS011;4325;42.520;27.448;2022-11-15T09:56:48;10.57;;;9.10;;
8574;SDS011;4325;42.520;27.448;2022-11-15T09:59:24;11.57;;;10.00;;
8574;SDS011;4325;42.520;27.448;2022-11-15T10:02:08;12.40;;;9.87;;
8574;SDS011;4325;42.520;27.448;2022-11-15T10:04:45;13.83;;;12.37;;
8574;SDS011;4325;42.520;27.448;2022-11-15T10:07:14;12.03;;;10.80;;
8574;SDS011;4325;42.520;27.448;2022-11-15T10:09:46;13.30;;;9.83;;
8574;SDS011;4325;42.520;27.448;2022-11-15T10:12:19;14.50;;;12.13;;
8574;SDS011;4325;42.520;27.448;2022-11-15T10:14:46;15.50;;;11.97;;
8574;SDS011;4325;42.520;27.448;2022-11-15T10:17:28;16.57;;;10.77;;
8574;SDS011;4325;42.520;27.448;2022-11-15T10:20:16;9.97;;;8.97;;
8574;SDS011;4325;42.520;27.448;2022-11-15T10:22:47;9.57;;;8.57;;
8574;SDS011;4325;42.520;27.448;2022-11-15T10:25:18;8.87;;;7.80;;
8574;SDS011;4325;42.520;27.448;2022-11-15T10:27:52;11.73;;;8.33;;
8574;SDS011;4325;42.520;27.448;2022-11-15T10:30:21;10.63;;;9.53;;
8574;SDS011;4325;42.520;27.448;2022-11-15T10:32:48;11.70;;;9.87;;
8574;SDS011;4325;42.520;27.448;2022-11-15T10:35:16;11.47;;;10.27;;
8574;SDS011;4325;42.520;27.448;2022-11-15T10:37:46;9.53;;;8.53;;
8574;SDS011;4325;42.520;27.448;2022-11-15T10:40:18;10.50;;;9.50;;
8574;SDS011;4325;42.520;27.448;2022-11-15T10:42:47;10.20;;;9.20;;
8574;SDS011;4325;42.520;27.448;2022-11-15T10:45:28;9.07;;;7.50;;
8574;SDS011;4325;42.520;27.448;2022-11-15T10:48:19;9.17;;;7.80;;
8574;SDS011;4325;42.520;27.448;2022-11-15T10:50:48;9.10;;;8.13;;
8574;SDS011;4325;42.520;27.448;2022-11-15T10:53:19;8.40;;;7.50;;
8574;SDS011;4325;42.520;27.448;2022-11-15T10:55:51;8.27;;;7.23;;
8574;SDS011;4325;42.520;27.448;2022-11-15T10:58:20;9.30;;;8.40;;
8574;SDS011;4325;42.520;27.448;2022-11-15T11:00:54;9.00;;;8.20;;
8574;SDS011;4325;42.520;27.448;2022-11-15T11:03:26;8.60;;;7.90;;
8574;SDS011;4325;42.520;27.448;2022-11-15T11:08:52;7.63;;;6.93;;
8574;SDS011;4325;42.520;27.448;2022-11-15T11:11:21;10.73;;;7.97;;
8574;SDS011;4325;42.520;27.448;2022-11-15T11:13:48;5.57;;;5.07;;
8574;SDS011;4325;42.520;27.448;2022-11-15T11:16:37;6.77;;;6.07;;
8574;SDS011;4325;42.520;27.448;2022-11-15T11:21:59;7.53;;;6.70;;
8574;SDS011;4325;42.520;27.448;2022-11-15T11:24:31;8.33;;;7.53;;
8574;SDS011;4325;42.520;27.448;2022-11-15T11:27:07;6.90;;;6.20;;
8574;SDS011;4325;42.520;27.448;2022-11-15T12:58:11;8.57;;;7.72;;
8574;SDS011;4325;42.520;27.448;2022-11-15T13:00:55;8.43;;;7.57;;
8574;SDS011;4325;42.520;27.448;2022-11-15T13:03:25;8.57;;;7.77;;
8574;SDS011;4325;42.520;27.448;2022-11-15T13:05:58;11.70;;;8.83;;
8574;SDS011;4325;42.520;27.448;2022-11-15T13:08:47;12.30;;;8.90;;
8574;SDS011;4325;42.520;27.448;2022-11-15T13:17:27;8.20;;;6.83;;
8574;SDS011;4325;42.520;27.448;2022-11-15T13:20:00;7.53;;;6.73;;
8574;SDS011;4325;42.520;27.448;2022-11-15T13:22:39;7.80;;;7.10;;
8574;SDS011;4325;42.520;27.448;2022-11-15T13:25:32;7.00;;;6.40;;
8574;SDS011;4325;42.520;27.448;2022-11-15T13:28:21;8.07;;;6.83;;
8574;SDS011;4325;42.520;27.448;2022-11-15T13:30:54;6.53;;;5.97;;
8574;SDS011;4325;42.520;27.448;2022-11-15T13:33:24;9.30;;;8.40;;
8574;SDS011;4325;42.520;27.448;2022-11-15T13:35:56;8.90;;;8.03;;
8574;SDS011;4325;42.520;27.448;2022-11-15T13:38:26;8.97;;;8.07;;
8574;SDS011;4325;42.520;27.448;2022-11-15T13:40:54;9.97;;;8.27;;
8574;SDS011;4325;42.520;27.448;2022-11-15T13:43:29;10.30;;;6.90;;
8574;SDS011;4325;42.520;27.448;2022-11-15T13:46:03;8.57;;;6.83;;
8574;SDS011;4325;42.520;27.448;2022-11-15T13:48:39;7.00;;;6.30;;
8574;SDS011;4325;42.520;27.448;2022-11-15T13:51:08;7.40;;;6.70;;
8574;SDS011;4325;42.520;27.448;2022-11-15T13:53:41;6.80;;;6.13;;
8574;SDS011;4325;42.520;27.448;2022-11-15T13:56:11;6.63;;;6.07;;
8574;SDS011;4325;42.520;27.448;2022-11-15T13:58:39;7.23;;;6.17;;
8574;SDS011;4325;42.520;27.448;2022-11-15T14:01:06;6.80;;;6.20;;
8574;SDS011;4325;42.520;27.448;2022-11-15T14:03:41;7.33;;;6.60;;
8574;SDS011;4325;42.520;27.448;2022-11-15T14:06:17;6.93;;;6.23;;
8574;SDS011;4325;42.520;27.448;2022-11-15T14:08:57;7.13;;;6.47;;
8574;SDS011;4325;42.520;27.448;2022-11-15T14:11:30;8.67;;;6.77;;
8574;SDS011;4325;42.520;27.448;2022-11-15T14:14:02;6.03;;;5.43;;
8574;SDS011;4325;42.520;27.448;2022-11-15T14:16:39;8.07;;;6.10;;
8574;SDS011;4325;42.520;27.448;2022-11-15T14:19:10;9.10;;;6.83;;
8574;SDS011;4325;42.520;27.448;2022-11-15T14:24:37;8.83;;;7.63;;
8574;SDS011;4325;42.520;27.448;2022-11-15T14:27:17;11.00;;;8.60;;
8574;SDS011;4325;42.520;27.448;2022-11-15T14:29:48;13.10;;;9.33;;
8574;SDS011;4325;42.520;27.448;2022-11-15T14:32:16;9.83;;;8.13;;
8574;SDS011;4325;42.520;27.448;2022-11-15T14:34:47;15.73;;;8.30;;
8574;SDS011;4325;42.520;27.448;2022-11-15T14:37:18;13.00;;;9.97;;
8574;SDS011;4325;42.520;27.448;2022-11-15T14:39:48;10.87;;;9.57;;
8574;SDS011;4325;42.520;27.448;2022-11-15T14:42:16;16.60;;;9.57;;
8574;SDS011;4325;42.520;27.448;2022-11-15T14:44:43;15.20;;;9.17;;
8574;SDS011;4325;42.520;27.448;2022-11-15T14:47:10;15.23;;;10.83;;
8574;SDS011;4325;42.520;27.448;2022-11-15T14:49:37;12.83;;;11.47;;
8574;SDS011;4325;42.520;27.448;2022-11-15T14:52:10;14.40;;;11.03;;
8574;SDS011;4325;42.520;27.448;2022-11-15T14:54:50;14.83;;;11.77;;
8574;SDS011;4325;42.520;27.448;2022-11-15T14:57:17;18.20;;;12.50;;
8574;SDS011;4325;42.520;27.448;2022-11-15T14:59:44;19.17;;;13.17;;
8574;SDS011;4325;42.520;27.448;2022-11-15T15:02:14;17.03;;;13.40;;
8574;SDS011;4325;42.520;27.448;2022-11-15T15:04:43;18.63;;;13.90;;
8574;SDS011;4325;42.520;27.448;2022-11-15T15:07:11;17.47;;;13.40;;
8574;SDS011;4325;42.520;27.448;2022-11-15T15:09:38;17.67;;;13.30;;
8574;SDS011;4325;42.520;27.448;2022-11-15T15:12:09;21.30;;;13.60;;
8574;SDS011;4325;42.520;27.448;2022-11-15T15:14:44;21.97;;;14.33;;
8574;SDS011;4325;42.520;27.448;2022-11-15T15:17:13;20.60;;;14.00;;
8574;SDS011;4325;42.520;27.448;2022-11-15T15:19:40;22.10;;;15.53;;
8574;SDS011;4325;42.520;27.448;2022-11-15T15:22:09;23.37;;;16.10;;
8574;SDS011;4325;42.520;27.448;2022-11-15T15:24:40;21.43;;;15.87;;
8574;SDS011;4325;42.520;27.448;2022-11-15T15:27:07;23.47;;;15.67;;
8574;SDS011;4325;42.520;27.448;2022-11-15T15:29:34;21.03;;;14.70;;
8574;SDS011;4325;42.520;27.448;2022-11-15T15:32:01;20.20;;;15.60;;
8574;SDS011;4325;42.520;27.448;2022-11-15T15:34:28;22.70;;;16.33;;
8574;SDS011;4325;42.520;27.448;2022-11-15T15:37:07;32.13;;;17.50;;
8574;SDS011;4325;42.520;27.448;2022-11-15T15:39:48;28.73;;;18.93;;
8574;SDS011;4325;42.520;27.448;2022-11-15T15:42:16;31.70;;;20.90;;
8574;SDS011;4325;42.520;27.448;2022-11-15T15:44:42;28.63;;;19.43;;
8574;SDS011;4325;42.520;27.448;2022-11-15T15:47:10;31.53;;;18.53;;
8574;SDS011;4325;42.520;27.448;2022-11-15T15:49:38;27.33;;;18.90;;
8574;SDS011;4325;42.520;27.448;2022-11-15T15:52:05;26.33;;;18.63;;
8574;SDS011;4325;42.520;27.448;2022-11-15T15:54:33;25.67;;;19.70;;
8574;SDS011;4325;42.520;27.448;2022-11-15T15:57:00;22.73;;;16.83;;
8574;SDS011;4325;42.520;27.448;2022-11-15T15:59:27;24.47;;;19.17;;
8574;SDS011;4325;42.520;27.448;2022-11-15T16:01:54;24.57;;;18.87;;
8574;SDS011;4325;42.520;27.448;2022-11-15T16:04:21;24.03;;;17.93;;
8574;SDS011;4325;42.520;27.448;2022-11-15T16:06:48;22.67;;;17.77;;
8574;SDS011;4325;42.520;27.448;2022-11-15T16:09:17;21.07;;;16.70;;
8574;SDS011;4325;42.520;27.448;2022-11-15T16:12:06;21.27;;;16.83;;
8574;SDS011;4325;42.520;27.448;2022-11-15T16:14:33;24.80;;;18.40;;
8574;SDS011;4325;42.520;27.448;2022-11-15T16:17:00;31.07;;;19.07;;
8574;SDS011;4325;42.520;27.448;2022-11-15T16:19:27;22.73;;;18.13;;
8574;SDS011;4325;42.520;27.448;2022-11-15T16:21:54;27.47;;;19.07;;
8574;SDS011;4325;42.520;27.448;2022-11-15T16:24:21;37.57;;;23.80;;
8574;SDS011;4325;42.520;27.448;2022-11-15T16:26:48;26.67;;;20.77;;
8574;SDS011;4325;42.520;27.448;2022-11-15T16:29:18;26.53;;;18.40;;
8574;SDS011;4325;42.520;27.448;2022-11-15T16:31:45;30.50;;;20.90;;
8574;SDS011;4325;42.520;27.448;2022-11-15T16:34:11;25.77;;;19.27;;
8574;SDS011;4325;42.520;27.448;2022-11-15T16:36:38;31.10;;;19.77;;
8574;SDS011;4325;42.520;27.448;2022-11-15T16:39:05;27.00;;;19.63;;
8574;SDS011;4325;42.520;27.448;2022-11-15T16:41:32;34.43;;;21.23;;
8574;SDS011;4325;42.520;27.448;2022-11-15T16:43:59;36.37;;;23.70;;
8574;SDS011;4325;42.520;27.448;2022-11-15T16:46:27;29.93;;;20.70;;
8574;SDS011;4325;42.520;27.448;2022-11-15T16:48:55;31.10;;;20.73;;
8574;SDS011;4325;42.520;27.448;2022-11-15T16:51:22;27.50;;;19.93;;
8574;SDS011;4325;42.520;27.448;2022-11-15T16:53:49;32.63;;;23.67;;